sensor_id;sensor_type;location;lat;lon;timestamp;temperature;humidity
75022;SHT31;63583;49.976;20.182;2024-01-30T00:01:59;1.79;79.51
75022;SHT31;63583;49.976;20.182;2024-01-30T00:04:25;1.84;79.59
75022;SHT31;63583;49.976;20.182;2024-01-30T00:06:51;1.86;79.17
75022;SHT31;63583;49.976;20.182;2024-01-30T00:09:18;1.90;79.20
75022;SHT31;63583;49.976;20.182;2024-01-30T00:11:45;1.98;78.78
75022;SHT31;63583;49.976;20.182;2024-01-30T00:14:11;1.94;79.03
75022;SHT31;63583;49.976;20.182;2024-01-30T00:16:37;1.90;79.06
75022;SHT31;63583;49.976;20.182;2024-01-30T00:19:03;1.70;80.05
75022;SHT31;63583;49.976;20.182;2024-01-30T00:21:29;1.59;80.60
75022;SHT31;63583;49.976;20.182;2024-01-30T00:23:55;1.53;80.32
75022;SHT31;63583;49.976;20.182;2024-01-30T00:26:20;1.42;80.74
75022;SHT31;63583;49.976;20.182;2024-01-30T00:28:46;1.45;80.28
75022;SHT31;63583;49.976;20.182;2024-01-30T00:31:12;1.58;79.03
75022;SHT31;63583;49.976;20.182;2024-01-30T00:33:40;1.45;79.75
75022;SHT31;63583;49.976;20.182;2024-01-30T00:36:07;1.45;79.78
75022;SHT31;63583;49.976;20.182;2024-01-30T00:38:33;1.59;78.70
75022;SHT31;63583;49.976;20.182;2024-01-30T00:40:59;1.51;79.11
75022;SHT31;63583;49.976;20.182;2024-01-30T00:43:25;1.49;79.25
75022;SHT31;63583;49.976;20.182;2024-01-30T00:45:51;1.43;79.71
75022;SHT31;63583;49.976;20.182;2024-01-30T00:48:20;1.41;79.92
75022;SHT31;63583;49.976;20.182;2024-01-30T00:50:46;1.46;79.81
75022;SHT31;63583;49.976;20.182;2024-01-30T00:53:12;1.38;79.94
75022;SHT31;63583;49.976;20.182;2024-01-30T00:55:38;1.28;80.27
75022;SHT31;63583;49.976;20.182;2024-01-30T00:58:04;1.21;80.58
75022;SHT31;63583;49.976;20.182;2024-01-30T01:00:30;1.18;80.58
75022;SHT31;63583;49.976;20.182;2024-01-30T01:02:58;1.18;80.26
75022;SHT31;63583;49.976;20.182;2024-01-30T01:05:24;1.24;80.02
75022;SHT31;63583;49.976;20.182;2024-01-30T01:07:49;1.27;79.82
75022;SHT31;63583;49.976;20.182;2024-01-30T01:10:18;1.31;79.64
75022;SHT31;63583;49.976;20.182;2024-01-30T01:12:45;1.22;79.80
75022;SHT31;63583;49.976;20.182;2024-01-30T01:15:11;1.09;80.31
75022;SHT31;63583;49.976;20.182;2024-01-30T01:17:38;1.07;79.95
75022;SHT31;63583;49.976;20.182;2024-01-30T01:20:05;1.00;80.49
75022;SHT31;63583;49.976;20.182;2024-01-30T01:22:32;0.95;80.84
75022;SHT31;63583;49.976;20.182;2024-01-30T01:24:58;0.94;80.53
75022;SHT31;63583;49.976;20.182;2024-01-30T01:27:25;0.91;80.63
75022;SHT31;63583;49.976;20.182;2024-01-30T01:29:51;0.85;80.65
75022;SHT31;63583;49.976;20.182;2024-01-30T01:32:17;0.87;80.03
75022;SHT31;63583;49.976;20.182;2024-01-30T01:34:43;0.87;80.50
75022;SHT31;63583;49.976;20.182;2024-01-30T01:37:09;0.84;79.87
75022;SHT31;63583;49.976;20.182;2024-01-30T01:39:35;0.79;79.71
75022;SHT31;63583;49.976;20.182;2024-01-30T01:42:01;0.79;79.90
75022;SHT31;63583;49.976;20.182;2024-01-30T01:44:27;0.77;79.33
75022;SHT31;63583;49.976;20.182;2024-01-30T01:46:54;0.77;79.13
75022;SHT31;63583;49.976;20.182;2024-01-30T01:49:22;0.76;79.53
75022;SHT31;63583;49.976;20.182;2024-01-30T01:51:51;0.73;80.47
75022;SHT31;63583;49.976;20.182;2024-01-30T01:54:18;0.69;80.25
75022;SHT31;63583;49.976;20.182;2024-01-30T01:56:45;0.63;80.23
75022;SHT31;63583;49.976;20.182;2024-01-30T01:59:11;0.69;79.91
75022;SHT31;63583;49.976;20.182;2024-01-30T02:01:37;0.70;79.12
75022;SHT31;63583;49.976;20.182;2024-01-30T02:04:04;0.72;79.09
75022;SHT31;63583;49.976;20.182;2024-01-30T02:06:32;0.72;79.09
75022;SHT31;63583;49.976;20.182;2024-01-30T02:08:58;0.70;79.02
75022;SHT31;63583;49.976;20.182;2024-01-30T02:11:25;0.74;78.97
75022;SHT31;63583;49.976;20.182;2024-01-30T02:13:50;0.72;79.41
75022;SHT31;63583;49.976;20.182;2024-01-30T02:16:16;0.73;79.37
75022;SHT31;63583;49.976;20.182;2024-01-30T02:18:45;0.69;79.30
75022;SHT31;63583;49.976;20.182;2024-01-30T02:21:17;0.70;79.54
75022;SHT31;63583;49.976;20.182;2024-01-30T02:23:44;0.67;79.78
75022;SHT31;63583;49.976;20.182;2024-01-30T02:26:10;0.70;79.66
75022;SHT31;63583;49.976;20.182;2024-01-30T02:28:37;0.69;79.73
75022;SHT31;63583;49.976;20.182;2024-01-30T02:31:04;0.67;79.48
75022;SHT31;63583;49.976;20.182;2024-01-30T02:33:30;0.62;79.15
75022;SHT31;63583;49.976;20.182;2024-01-30T02:35:56;0.64;79.16
75022;SHT31;63583;49.976;20.182;2024-01-30T02:38:22;0.64;78.78
75022;SHT31;63583;49.976;20.182;2024-01-30T02:40:49;0.72;78.64
75022;SHT31;63583;49.976;20.182;2024-01-30T02:43:16;0.70;78.30
75022;SHT31;63583;49.976;20.182;2024-01-30T02:45:42;0.73;78.27
75022;SHT31;63583;49.976;20.182;2024-01-30T02:48:08;0.77;78.10
75022;SHT31;63583;49.976;20.182;2024-01-30T02:50:34;0.80;77.74
75022;SHT31;63583;49.976;20.182;2024-01-30T02:53:00;0.87;77.39
75022;SHT31;63583;49.976;20.182;2024-01-30T02:55:26;0.94;76.88
75022;SHT31;63583;49.976;20.182;2024-01-30T02:57:52;0.97;76.56
75022;SHT31;63583;49.976;20.182;2024-01-30T03:00:19;1.07;75.53
75022;SHT31;63583;49.976;20.182;2024-01-30T03:02:45;1.07;75.48
75022;SHT31;63583;49.976;20.182;2024-01-30T03:05:11;1.21;74.76
75022;SHT31;63583;49.976;20.182;2024-01-30T03:07:37;1.32;74.12
75022;SHT31;63583;49.976;20.182;2024-01-30T03:10:04;1.32;74.04
75022;SHT31;63583;49.976;20.182;2024-01-30T03:12:31;1.35;73.84
75022;SHT31;63583;49.976;20.182;2024-01-30T03:14:57;1.42;73.84
75022;SHT31;63583;49.976;20.182;2024-01-30T03:17:23;1.48;73.72
75022;SHT31;63583;49.976;20.182;2024-01-30T03:19:50;1.49;73.47
75022;SHT31;63583;49.976;20.182;2024-01-30T03:22:16;1.43;73.69
75022;SHT31;63583;49.976;20.182;2024-01-30T03:24:42;1.52;73.35
75022;SHT31;63583;49.976;20.182;2024-01-30T03:27:08;1.48;73.36
75022;SHT31;63583;49.976;20.182;2024-01-30T03:29:34;1.43;73.78
75022;SHT31;63583;49.976;20.182;2024-01-30T03:32:00;1.38;73.83
75022;SHT31;63583;49.976;20.182;2024-01-30T03:34:26;1.34;74.14
75022;SHT31;63583;49.976;20.182;2024-01-30T03:36:52;1.24;74.95
75022;SHT31;63583;49.976;20.182;2024-01-30T03:39:18;1.15;75.42
75022;SHT31;63583;49.976;20.182;2024-01-30T03:41:44;1.08;75.83
75022;SHT31;63583;49.976;20.182;2024-01-30T03:44:10;0.98;76.58
75022;SHT31;63583;49.976;20.182;2024-01-30T03:46:36;0.93;76.98
75022;SHT31;63583;49.976;20.182;2024-01-30T03:49:02;0.85;77.36
75022;SHT31;63583;49.976;20.182;2024-01-30T03:51:28;0.77;77.60
75022;SHT31;63583;49.976;20.182;2024-01-30T03:53:54;0.79;77.60
75022;SHT31;63583;49.976;20.182;2024-01-30T03:56:20;0.81;77.07
75022;SHT31;63583;49.976;20.182;2024-01-30T03:58:46;0.83;76.84
75022;SHT31;63583;49.976;20.182;2024-01-30T04:01:15;0.84;76.50
75022;SHT31;63583;49.976;20.182;2024-01-30T04:03:41;0.79;76.53
75022;SHT31;63583;49.976;20.182;2024-01-30T04:06:08;0.77;76.27
75022;SHT31;63583;49.976;20.182;2024-01-30T04:08:34;0.79;76.67
75022;SHT31;63583;49.976;20.182;2024-01-30T04:11:06;0.79;76.12
75022;SHT31;63583;49.976;20.182;2024-01-30T04:13:32;0.81;75.79
75022;SHT31;63583;49.976;20.182;2024-01-30T04:16:02;0.73;76.07
75022;SHT31;63583;49.976;20.182;2024-01-30T04:18:28;0.70;77.00
75022;SHT31;63583;49.976;20.182;2024-01-30T04:20:54;0.52;83.64
75022;SHT31;63583;49.976;20.182;2024-01-30T04:23:21;0.22;85.53
75022;SHT31;63583;49.976;20.182;2024-01-30T04:25:47;0.12;85.99
75022;SHT31;63583;49.976;20.182;2024-01-30T04:28:13;0.04;85.01
75022;SHT31;63583;49.976;20.182;2024-01-30T04:30:38;0.01;82.85
75022;SHT31;63583;49.976;20.182;2024-01-30T04:33:05;0.07;80.38
75022;SHT31;63583;49.976;20.182;2024-01-30T04:35:31;0.12;80.29
75022;SHT31;63583;49.976;20.182;2024-01-30T04:37:57;0.16;79.13
75022;SHT31;63583;49.976;20.182;2024-01-30T04:40:23;0.18;79.39
75022;SHT31;63583;49.976;20.182;2024-01-30T04:42:49;0.19;78.83
75022;SHT31;63583;49.976;20.182;2024-01-30T04:45:15;0.25;78.55
75022;SHT31;63583;49.976;20.182;2024-01-30T04:47:41;0.30;77.52
75022;SHT31;63583;49.976;20.182;2024-01-30T04:50:07;0.32;77.37
75022;SHT31;63583;49.976;20.182;2024-01-30T04:52:34;0.33;77.42
75022;SHT31;63583;49.976;20.182;2024-01-30T04:55:00;0.32;77.26
75022;SHT31;63583;49.976;20.182;2024-01-30T04:57:26;0.30;77.10
75022;SHT31;63583;49.976;20.182;2024-01-30T04:59:52;0.29;77.37
75022;SHT31;63583;49.976;20.182;2024-01-30T05:02:18;0.28;77.24
75022;SHT31;63583;49.976;20.182;2024-01-30T05:04:43;0.28;77.37
75022;SHT31;63583;49.976;20.182;2024-01-30T05:07:10;0.30;77.59
75022;SHT31;63583;49.976;20.182;2024-01-30T05:09:35;0.38;77.31
75022;SHT31;63583;49.976;20.182;2024-01-30T05:12:02;0.36;77.04
75022;SHT31;63583;49.976;20.182;2024-01-30T05:14:28;0.38;76.90
75022;SHT31;63583;49.976;20.182;2024-01-30T05:16:53;0.33;77.01
75022;SHT31;63583;49.976;20.182;2024-01-30T05:19:19;0.29;77.29
75022;SHT31;63583;49.976;20.182;2024-01-30T05:21:47;0.25;77.45
75022;SHT31;63583;49.976;20.182;2024-01-30T05:24:12;0.25;77.66
75022;SHT31;63583;49.976;20.182;2024-01-30T05:26:38;0.26;77.64
75022;SHT31;63583;49.976;20.182;2024-01-30T05:29:05;0.28;77.19
75022;SHT31;63583;49.976;20.182;2024-01-30T05:31:31;0.28;76.93
75022;SHT31;63583;49.976;20.182;2024-01-30T05:33:57;0.28;76.20
75022;SHT31;63583;49.976;20.182;2024-01-30T05:36:23;0.28;76.61
75022;SHT31;63583;49.976;20.182;2024-01-30T05:38:48;0.28;76.67
75022;SHT31;63583;49.976;20.182;2024-01-30T05:41:14;0.29;76.58
75022;SHT31;63583;49.976;20.182;2024-01-30T05:43:40;0.26;76.83
75022;SHT31;63583;49.976;20.182;2024-01-30T05:46:09;0.26;76.19
75022;SHT31;63583;49.976;20.182;2024-01-30T05:48:35;0.25;76.00
75022;SHT31;63583;49.976;20.182;2024-01-30T05:51:02;0.29;76.33
75022;SHT31;63583;49.976;20.182;2024-01-30T05:53:28;0.30;76.28
75022;SHT31;63583;49.976;20.182;2024-01-30T05:55:54;0.22;76.58
75022;SHT31;63583;49.976;20.182;2024-01-30T05:58:20;0.25;76.36
75022;SHT31;63583;49.976;20.182;2024-01-30T06:00:45;0.28;76.51
75022;SHT31;63583;49.976;20.182;2024-01-30T06:03:11;0.18;82.38
75022;SHT31;63583;49.976;20.182;2024-01-30T06:05:37;0.04;86.01
75022;SHT31;63583;49.976;20.182;2024-01-30T06:08:03;-0.06;86.82
75022;SHT31;63583;49.976;20.182;2024-01-30T06:10:29;-0.10;86.09
75022;SHT31;63583;49.976;20.182;2024-01-30T06:12:55;-0.17;84.48
75022;SHT31;63583;49.976;20.182;2024-01-30T06:15:21;-0.22;84.02
75022;SHT31;63583;49.976;20.182;2024-01-30T06:17:47;-0.23;82.97
75022;SHT31;63583;49.976;20.182;2024-01-30T06:20:12;-0.24;81.46
75022;SHT31;63583;49.976;20.182;2024-01-30T06:22:38;-0.17;79.73
75022;SHT31;63583;49.976;20.182;2024-01-30T06:25:04;-0.09;79.57
75022;SHT31;63583;49.976;20.182;2024-01-30T06:27:30;0.02;77.86
75022;SHT31;63583;49.976;20.182;2024-01-30T06:29:56;0.09;77.88
75022;SHT31;63583;49.976;20.182;2024-01-30T06:32:22;0.12;77.02
75022;SHT31;63583;49.976;20.182;2024-01-30T06:34:48;0.22;76.48
75022;SHT31;63583;49.976;20.182;2024-01-30T06:37:13;0.26;76.34
75022;SHT31;63583;49.976;20.182;2024-01-30T06:39:39;0.35;76.16
75022;SHT31;63583;49.976;20.182;2024-01-30T06:42:05;0.38;75.75
75022;SHT31;63583;49.976;20.182;2024-01-30T06:44:31;0.39;75.85
75022;SHT31;63583;49.976;20.182;2024-01-30T06:46:56;0.45;75.94
75022;SHT31;63583;49.976;20.182;2024-01-30T06:49:22;0.48;75.25
75022;SHT31;63583;49.976;20.182;2024-01-30T06:51:48;0.50;75.35
75022;SHT31;63583;49.976;20.182;2024-01-30T06:54:14;0.52;76.11
75022;SHT31;63583;49.976;20.182;2024-01-30T06:56:40;0.48;77.53
75022;SHT31;63583;49.976;20.182;2024-01-30T06:59:06;0.42;78.20
75022;SHT31;63583;49.976;20.182;2024-01-30T07:01:32;0.42;77.47
75022;SHT31;63583;49.976;20.182;2024-01-30T07:03:58;0.42;78.71
75022;SHT31;63583;49.976;20.182;2024-01-30T07:06:24;0.46;81.51
75022;SHT31;63583;49.976;20.182;2024-01-30T07:08:50;0.43;82.78
75022;SHT31;63583;49.976;20.182;2024-01-30T07:11:22;0.43;83.01
75022;SHT31;63583;49.976;20.182;2024-01-30T07:13:52;0.43;83.41
75022;SHT31;63583;49.976;20.182;2024-01-30T07:16:18;0.46;85.03
75022;SHT31;63583;49.976;20.182;2024-01-30T07:18:44;0.42;84.93
75022;SHT31;63583;49.976;20.182;2024-01-30T07:21:10;0.49;83.61
75022;SHT31;63583;49.976;20.182;2024-01-30T07:23:36;0.62;82.82
75022;SHT31;63583;49.976;20.182;2024-01-30T07:26:07;0.76;78.58
75022;SHT31;63583;49.976;20.182;2024-01-30T07:28:32;0.84;81.21
75022;SHT31;63583;49.976;20.182;2024-01-30T07:30:58;0.93;82.57
75022;SHT31;63583;49.976;20.182;2024-01-30T07:33:24;1.00;82.24
75022;SHT31;63583;49.976;20.182;2024-01-30T07:35:52;1.14;82.33
75022;SHT31;63583;49.976;20.182;2024-01-30T07:38:18;1.25;83.12
75022;SHT31;63583;49.976;20.182;2024-01-30T07:40:44;1.36;81.74
75022;SHT31;63583;49.976;20.182;2024-01-30T07:43:10;1.51;79.95
75022;SHT31;63583;49.976;20.182;2024-01-30T07:45:36;1.67;80.73
75022;SHT31;63583;49.976;20.182;2024-01-30T07:48:05;1.73;82.46
75022;SHT31;63583;49.976;20.182;2024-01-30T07:50:31;1.76;82.92
75022;SHT31;63583;49.976;20.182;2024-01-30T07:52:59;1.79;83.36
75022;SHT31;63583;49.976;20.182;2024-01-30T07:55:25;1.83;83.58
75022;SHT31;63583;49.976;20.182;2024-01-30T07:57:55;1.90;83.78
75022;SHT31;63583;49.976;20.182;2024-01-30T08:00:21;2.04;82.62
75022;SHT31;63583;49.976;20.182;2024-01-30T08:02:47;2.14;82.11
75022;SHT31;63583;49.976;20.182;2024-01-30T08:05:13;2.27;83.21
75022;SHT31;63583;49.976;20.182;2024-01-30T08:07:41;2.27;83.89
75022;SHT31;63583;49.976;20.182;2024-01-30T08:10:11;2.31;83.63
75022;SHT31;63583;49.976;20.182;2024-01-30T08:12:38;2.31;84.07
75022;SHT31;63583;49.976;20.182;2024-01-30T08:15:05;2.32;84.21
75022;SHT31;63583;49.976;20.182;2024-01-30T08:17:31;2.45;83.77
75022;SHT31;63583;49.976;20.182;2024-01-30T08:19:57;2.52;82.95
75022;SHT31;63583;49.976;20.182;2024-01-30T08:22:24;2.65;81.90
75022;SHT31;63583;49.976;20.182;2024-01-30T08:24:50;2.73;81.27
75022;SHT31;63583;49.976;20.182;2024-01-30T08:27:16;2.66;82.72
75022;SHT31;63583;49.976;20.182;2024-01-30T08:29:42;2.79;83.07
75022;SHT31;63583;49.976;20.182;2024-01-30T08:32:08;2.83;83.24
75022;SHT31;63583;49.976;20.182;2024-01-30T08:34:34;2.85;83.69
75022;SHT31;63583;49.976;20.182;2024-01-30T08:36:59;2.80;83.30
75022;SHT31;63583;49.976;20.182;2024-01-30T08:39:25;2.93;83.35
75022;SHT31;63583;49.976;20.182;2024-01-30T08:41:51;3.03;82.88
75022;SHT31;63583;49.976;20.182;2024-01-30T08:44:17;2.96;83.43
75022;SHT31;63583;49.976;20.182;2024-01-30T08:46:44;2.89;84.52
75022;SHT31;63583;49.976;20.182;2024-01-30T08:49:11;2.90;83.77
75022;SHT31;63583;49.976;20.182;2024-01-30T08:51:39;2.97;83.62
75022;SHT31;63583;49.976;20.182;2024-01-30T08:54:05;3.07;83.14
75022;SHT31;63583;49.976;20.182;2024-01-30T08:56:31;2.96;83.62
75022;SHT31;63583;49.976;20.182;2024-01-30T08:58:56;2.93;84.21
75022;SHT31;63583;49.976;20.182;2024-01-30T09:01:22;2.87;84.14
75022;SHT31;63583;49.976;20.182;2024-01-30T09:03:48;2.85;84.29
75022;SHT31;63583;49.976;20.182;2024-01-30T09:06:14;2.79;84.75
75022;SHT31;63583;49.976;20.182;2024-01-30T09:08:40;2.86;84.46
75022;SHT31;63583;49.976;20.182;2024-01-30T09:11:12;2.86;84.26
75022;SHT31;63583;49.976;20.182;2024-01-30T09:13:38;2.86;84.72
75022;SHT31;63583;49.976;20.182;2024-01-30T09:16:05;3.00;84.80
75022;SHT31;63583;49.976;20.182;2024-01-30T09:30:16;3.15;84.83
75022;SHT31;63583;49.976;20.182;2024-01-30T09:32:43;3.20;84.49
75022;SHT31;63583;49.976;20.182;2024-01-30T09:35:09;3.32;84.02
75022;SHT31;63583;49.976;20.182;2024-01-30T09:37:34;3.32;84.04
75022;SHT31;63583;49.976;20.182;2024-01-30T09:40:01;3.28;83.39
75022;SHT31;63583;49.976;20.182;2024-01-30T09:42:35;3.38;83.53
75022;SHT31;63583;49.976;20.182;2024-01-30T09:45:04;3.44;83.03
75022;SHT31;63583;49.976;20.182;2024-01-30T09:47:41;3.41;83.05
75022;SHT31;63583;49.976;20.182;2024-01-30T09:50:12;3.48;83.15
75022;SHT31;63583;49.976;20.182;2024-01-30T09:52:38;3.54;83.29
75022;SHT31;63583;49.976;20.182;2024-01-30T09:55:05;3.62;82.82
75022;SHT31;63583;49.976;20.182;2024-01-30T09:57:31;3.79;82.69
75022;SHT31;63583;49.976;20.182;2024-01-30T09:59:57;3.79;83.42
75022;SHT31;63583;49.976;20.182;2024-01-30T10:02:23;3.72;84.10
75022;SHT31;63583;49.976;20.182;2024-01-30T10:04:52;3.54;83.81
75022;SHT31;63583;49.976;20.182;2024-01-30T10:07:19;3.69;83.95
75022;SHT31;63583;49.976;20.182;2024-01-30T10:09:45;3.61;84.48
75022;SHT31;63583;49.976;20.182;2024-01-30T10:12:12;3.65;84.24
75022;SHT31;63583;49.976;20.182;2024-01-30T10:14:39;3.50;84.40
75022;SHT31;63583;49.976;20.182;2024-01-30T10:17:08;3.39;84.20
75022;SHT31;63583;49.976;20.182;2024-01-30T10:19:33;3.50;84.10
75022;SHT31;63583;49.976;20.182;2024-01-30T10:22:00;3.17;82.23
75022;SHT31;63583;49.976;20.182;2024-01-30T10:24:26;3.18;81.36
75022;SHT31;63583;49.976;20.182;2024-01-30T10:26:53;3.08;80.96
75022;SHT31;63583;49.976;20.182;2024-01-30T10:29:18;3.15;81.05
75022;SHT31;63583;49.976;20.182;2024-01-30T10:31:44;3.32;80.68
75022;SHT31;63583;49.976;20.182;2024-01-30T10:34:10;3.24;81.49
75022;SHT31;63583;49.976;20.182;2024-01-30T10:36:47;3.44;80.62
75022;SHT31;63583;49.976;20.182;2024-01-30T10:39:17;3.39;80.74
75022;SHT31;63583;49.976;20.182;2024-01-30T10:41:44;3.41;81.12
75022;SHT31;63583;49.976;20.182;2024-01-30T10:44:10;3.41;81.88
75022;SHT31;63583;49.976;20.182;2024-01-30T10:46:38;3.56;81.67
75022;SHT31;63583;49.976;20.182;2024-01-30T10:49:04;3.63;80.86
75022;SHT31;63583;49.976;20.182;2024-01-30T10:51:31;3.58;80.96
75022;SHT31;63583;49.976;20.182;2024-01-30T10:53:57;3.79;80.57
75022;SHT31;63583;49.976;20.182;2024-01-30T10:56:24;3.69;79.76
75022;SHT31;63583;49.976;20.182;2024-01-30T10:58:51;3.78;79.59
75022;SHT31;63583;49.976;20.182;2024-01-30T11:01:24;3.65;79.17
75022;SHT31;63583;49.976;20.182;2024-01-30T11:03:54;3.73;80.37
75022;SHT31;63583;49.976;20.182;2024-01-30T11:06:24;3.76;78.59
75022;SHT31;63583;49.976;20.182;2024-01-30T11:09:10;3.75;78.69
75022;SHT31;63583;49.976;20.182;2024-01-30T11:11:58;3.99;77.68
75022;SHT31;63583;49.976;20.182;2024-01-30T11:14:29;4.07;76.73
75022;SHT31;63583;49.976;20.182;2024-01-30T11:16:59;4.03;77.04
75022;SHT31;63583;49.976;20.182;2024-01-30T11:19:26;4.06;75.80
75022;SHT31;63583;49.976;20.182;2024-01-30T11:21:53;4.10;76.17
75022;SHT31;63583;49.976;20.182;2024-01-30T11:24:23;4.17;75.59
75022;SHT31;63583;49.976;20.182;2024-01-30T11:26:50;4.21;75.76
75022;SHT31;63583;49.976;20.182;2024-01-30T11:29:24;4.31;75.81
75022;SHT31;63583;49.976;20.182;2024-01-30T11:31:57;4.38;75.45
75022;SHT31;63583;49.976;20.182;2024-01-30T11:34:23;4.61;74.53
75022;SHT31;63583;49.976;20.182;2024-01-30T11:36:57;4.47;75.08
75022;SHT31;63583;49.976;20.182;2024-01-30T11:39:27;4.45;75.24
75022;SHT31;63583;49.976;20.182;2024-01-30T11:41:53;4.44;74.73
75022;SHT31;63583;49.976;20.182;2024-01-30T11:44:20;4.48;75.21
75022;SHT31;63583;49.976;20.182;2024-01-30T11:46:51;4.52;75.00
75022;SHT31;63583;49.976;20.182;2024-01-30T11:49:18;4.59;75.89
75022;SHT31;63583;49.976;20.182;2024-01-30T11:51:47;4.67;76.59
75022;SHT31;63583;49.976;20.182;2024-01-30T11:54:15;4.65;77.47
75022;SHT31;63583;49.976;20.182;2024-01-30T11:56:42;4.65;77.61
75022;SHT31;63583;49.976;20.182;2024-01-30T11:59:08;4.68;78.39
75022;SHT31;63583;49.976;20.182;2024-01-30T12:01:35;4.76;79.04
75022;SHT31;63583;49.976;20.182;2024-01-30T12:04:00;4.83;79.37
75022;SHT31;63583;49.976;20.182;2024-01-30T12:06:27;4.87;79.40
75022;SHT31;63583;49.976;20.182;2024-01-30T12:09:00;4.86;78.65
75022;SHT31;63583;49.976;20.182;2024-01-30T12:11:27;5.17;77.79
75022;SHT31;63583;49.976;20.182;2024-01-30T12:13:53;5.34;77.39
75022;SHT31;63583;49.976;20.182;2024-01-30T12:16:20;5.34;77.13
75022;SHT31;63583;49.976;20.182;2024-01-30T12:18:46;5.31;76.54
75022;SHT31;63583;49.976;20.182;2024-01-30T12:21:12;5.23;76.10
75022;SHT31;63583;49.976;20.182;2024-01-30T12:23:37;5.24;76.64
75022;SHT31;63583;49.976;20.182;2024-01-30T12:26:04;5.27;76.11
75022;SHT31;63583;49.976;20.182;2024-01-30T12:28:33;5.30;75.27
75022;SHT31;63583;49.976;20.182;2024-01-30T12:31:03;5.35;75.82
75022;SHT31;63583;49.976;20.182;2024-01-30T12:33:29;5.48;75.54
75022;SHT31;63583;49.976;20.182;2024-01-30T12:35:56;5.48;75.63
75022;SHT31;63583;49.976;20.182;2024-01-30T12:38:23;5.47;75.79
75022;SHT31;63583;49.976;20.182;2024-01-30T12:40:54;5.56;75.65
75022;SHT31;63583;49.976;20.182;2024-01-30T12:43:21;5.55;75.32
75022;SHT31;63583;49.976;20.182;2024-01-30T12:45:47;5.58;74.73
75022;SHT31;63583;49.976;20.182;2024-01-30T12:48:13;5.62;75.42
75022;SHT31;63583;49.976;20.182;2024-01-30T12:50:39;5.79;74.33
75022;SHT31;63583;49.976;20.182;2024-01-30T12:53:05;5.78;74.62
75022;SHT31;63583;49.976;20.182;2024-01-30T12:55:31;5.82;74.82
75022;SHT31;63583;49.976;20.182;2024-01-30T12:57:57;5.85;74.96
75022;SHT31;63583;49.976;20.182;2024-01-30T13:00:23;5.83;75.21
75022;SHT31;63583;49.976;20.182;2024-01-30T13:02:49;5.81;75.03
75022;SHT31;63583;49.976;20.182;2024-01-30T13:05:15;5.79;75.16
75022;SHT31;63583;49.976;20.182;2024-01-30T13:07:41;6.02;74.15
75022;SHT31;63583;49.976;20.182;2024-01-30T13:10:07;6.31;72.97
75022;SHT31;63583;49.976;20.182;2024-01-30T13:12:32;6.27;73.11
75022;SHT31;63583;49.976;20.182;2024-01-30T13:14:59;6.14;73.17
75022;SHT31;63583;49.976;20.182;2024-01-30T13:17:30;6.05;73.71
75022;SHT31;63583;49.976;20.182;2024-01-30T13:19:56;6.16;73.49
75022;SHT31;63583;49.976;20.182;2024-01-30T13:22:21;6.05;74.16
75022;SHT31;63583;49.976;20.182;2024-01-30T13:24:48;6.20;73.56
75022;SHT31;63583;49.976;20.182;2024-01-30T13:27:13;6.09;73.59
75022;SHT31;63583;49.976;20.182;2024-01-30T13:29:40;6.06;73.50
75022;SHT31;63583;49.976;20.182;2024-01-30T13:32:05;6.20;73.01
75022;SHT31;63583;49.976;20.182;2024-01-30T13:34:31;6.01;72.85
75022;SHT31;63583;49.976;20.182;2024-01-30T13:36:57;6.03;73.01
75022;SHT31;63583;49.976;20.182;2024-01-30T13:39:23;5.98;73.01
75022;SHT31;63583;49.976;20.182;2024-01-30T13:41:49;6.02;72.41
75022;SHT31;63583;49.976;20.182;2024-01-30T13:44:16;5.96;73.15
75022;SHT31;63583;49.976;20.182;2024-01-30T13:46:46;5.98;73.00
75022;SHT31;63583;49.976;20.182;2024-01-30T13:49:12;5.96;72.52
75022;SHT31;63583;49.976;20.182;2024-01-30T13:51:38;5.92;72.72
75022;SHT31;63583;49.976;20.182;2024-01-30T13:54:04;5.79;72.44
75022;SHT31;63583;49.976;20.182;2024-01-30T13:56:30;5.72;72.80
75022;SHT31;63583;49.976;20.182;2024-01-30T13:58:56;5.64;73.61
75022;SHT31;63583;49.976;20.182;2024-01-30T14:01:22;5.61;73.26
75022;SHT31;63583;49.976;20.182;2024-01-30T14:03:48;5.54;73.03
75022;SHT31;63583;49.976;20.182;2024-01-30T14:06:14;5.56;72.95
75022;SHT31;63583;49.976;20.182;2024-01-30T14:08:40;5.52;73.04
75022;SHT31;63583;49.976;20.182;2024-01-30T14:11:06;5.47;73.79
75022;SHT31;63583;49.976;20.182;2024-01-30T14:13:32;5.45;74.08
75022;SHT31;63583;49.976;20.182;2024-01-30T14:15:58;5.41;73.63
75022;SHT31;63583;49.976;20.182;2024-01-30T14:18:25;5.38;73.86
75022;SHT31;63583;49.976;20.182;2024-01-30T14:20:53;5.37;74.20
75022;SHT31;63583;49.976;20.182;2024-01-30T14:23:20;5.31;73.84
75022;SHT31;63583;49.976;20.182;2024-01-30T14:25:46;5.38;74.04
75022;SHT31;63583;49.976;20.182;2024-01-30T14:28:12;5.31;74.04
75022;SHT31;63583;49.976;20.182;2024-01-30T14:30:38;5.37;74.45
75022;SHT31;63583;49.976;20.182;2024-01-30T14:33:07;5.40;73.98
75022;SHT31;63583;49.976;20.182;2024-01-30T14:35:32;5.38;74.38
75022;SHT31;63583;49.976;20.182;2024-01-30T14:37:59;5.35;74.27
75022;SHT31;63583;49.976;20.182;2024-01-30T14:40:25;5.27;74.46
75022;SHT31;63583;49.976;20.182;2024-01-30T14:42:51;5.24;74.71
75022;SHT31;63583;49.976;20.182;2024-01-30T14:45:16;5.22;74.78
75022;SHT31;63583;49.976;20.182;2024-01-30T14:47:42;5.17;74.59
75022;SHT31;63583;49.976;20.182;2024-01-30T14:50:08;5.23;74.36
75022;SHT31;63583;49.976;20.182;2024-01-30T14:52:34;5.14;74.71
75022;SHT31;63583;49.976;20.182;2024-01-30T14:55:00;5.06;74.69
75022;SHT31;63583;49.976;20.182;2024-01-30T14:57:27;4.99;75.03
75022;SHT31;63583;49.976;20.182;2024-01-30T14:59:52;4.93;74.79
75022;SHT31;63583;49.976;20.182;2024-01-30T15:02:18;4.87;74.74
75022;SHT31;63583;49.976;20.182;2024-01-30T15:04:44;4.85;74.97
75022;SHT31;63583;49.976;20.182;2024-01-30T15:07:10;4.79;75.46
75022;SHT31;63583;49.976;20.182;2024-01-30T15:09:36;4.75;75.57
75022;SHT31;63583;49.976;20.182;2024-01-30T15:12:02;4.68;75.74
75022;SHT31;63583;49.976;20.182;2024-01-30T15:14:27;4.67;75.81
75022;SHT31;63583;49.976;20.182;2024-01-30T15:16:53;4.69;75.83
75022;SHT31;63583;49.976;20.182;2024-01-30T15:19:19;4.68;75.66
75022;SHT31;63583;49.976;20.182;2024-01-30T15:21:45;4.65;75.90
75022;SHT31;63583;49.976;20.182;2024-01-30T15:24:10;4.59;76.19
75022;SHT31;63583;49.976;20.182;2024-01-30T15:26:40;4.55;76.28
75022;SHT31;63583;49.976;20.182;2024-01-30T15:29:06;4.52;76.24
75022;SHT31;63583;49.976;20.182;2024-01-30T15:31:32;4.51;75.05
75022;SHT31;63583;49.976;20.182;2024-01-30T15:33:58;4.48;74.89
75022;SHT31;63583;49.976;20.182;2024-01-30T15:36:24;4.44;75.00
75022;SHT31;63583;49.976;20.182;2024-01-30T15:38:50;4.37;75.08